Time;durP1;ratioP1;P1;durP2;ratioP2;P2;SDS_P1;SDS_P2;PMS_P1;PMS_P2;Temp;Humidity;BMP_temperature;BMP_pressure;BME280_temperature;BME280_humidity;BME280_pressure;Samples;Min_cycle;Max_cycle;Signal;HPM_P1;HPM_P2
2021/05/27 00:01:08;;;;;;;5.22;4.13;;;409.80;2355.20;;;;;;5072660;28;20081;-61
2021/05/27 00:03:34;;;;;;;7.50;4.07;;;409.80;2355.20;;;;;;5071921;28;20033;-61
2021/05/27 00:06:00;;;;;;;8.32;4.15;;;409.90;2355.20;;;;;;5072507;28;20032;-63
2021/05/27 00:08:25;;;;;;;6.05;3.22;;;410.00;2329.60;;;;;;5072639;28;20040;-61
2021/05/27 00:10:51;;;;;;;5.85;3.92;;;410.00;2329.60;;;;;;5072683;28;20060;-62
2021/05/27 00:13:17;;;;;;;4.43;3.13;;;409.90;2355.20;;;;;;5072784;28;20030;-61
2021/05/27 00:15:43;;;;;;;5.95;3.50;;;409.80;2355.20;;;;;;5072402;28;20056;-61
2021/05/27 00:18:09;;;;;;;8.57;3.90;;;409.70;2355.20;;;;;;5072655;28;20028;-61
2021/05/27 00:20:34;;;;;;;7.22;4.10;;;409.60;2355.20;;;;;;5072274;28;20028;-61
2021/05/27 00:23:00;;;;;;;8.65;4.07;;;409.60;2355.20;;;;;;5072296;28;20031;-60
2021/05/27 00:25:26;;;;;;;9.55;4.15;;;409.60;2355.20;;;;;;5072350;28;20107;-61
2021/05/27 00:27:53;;;;;;;7.15;4.30;;;409.70;2355.20;;;;;;5072039;28;20032;-61
2021/05/27 00:30:20;;;;;;;7.43;3.75;;;409.70;2355.20;;;;;;5072115;28;20031;-61
2021/05/27 00:32:46;;;;;;;6.93;3.88;;;409.70;2355.20;;;;;;5072349;28;20029;-60
2021/05/27 00:35:12;;;;;;;5.82;3.70;;;409.70;2355.20;;;;;;5072255;28;20025;-60
2021/05/27 00:37:38;;;;;;;6.22;4.22;;;409.60;2355.20;;;;;;5072085;28;20044;-61
2021/05/27 00:40:07;;;;;;;8.35;3.58;;;384.90;2329.60;;;;;;5071983;28;20021;-61
2021/05/27 00:42:32;;;;;;;7.50;4.97;;;384.50;2329.60;;;;;;5071737;28;20502;-60
2021/05/27 00:45:04;;;;;;;8.05;4.25;;;384.20;2329.60;;;;;;5071975;28;20027;-61
2021/05/27 00:47:30;;;;;;;11.15;4.50;;;384.00;2329.60;;;;;;5071893;28;20060;-61
2021/05/27 00:49:55;;;;;;;5.93;4.00;;;384.00;2329.60;;;;;;5072016;28;20471;-60
2021/05/27 00:52:21;;;;;;;7.78;4.03;;;384.00;2329.60;;;;;;5071605;28;20356;-60
2021/05/27 00:54:49;;;;;;;7.80;4.25;;;384.10;2329.60;;;;;;5072058;28;20097;-60
2021/05/27 00:57:36;;;;;;;7.53;4.47;;;384.10;2329.60;;;;;;5071917;28;20016;-61
2021/05/27 01:00:05;;;;;;;5.55;3.60;;;384.20;2329.60;;;;;;5071448;28;20024;-60
2021/05/27 01:02:31;;;;;;;6.57;3.67;;;384.20;2329.60;;;;;;5071520;28;20098;-60
2021/05/27 01:04:57;;;;;;;8.73;4.15;;;384.30;2329.60;;;;;;5071651;28;20024;-60
2021/05/27 01:07:23;;;;;;;6.60;4.15;;;384.30;2329.60;;;;;;5071222;28;20032;-60
2021/05/27 01:09:50;;;;;;;4.82;3.60;;;384.30;2329.60;;;;;;5071506;28;20024;-60
2021/05/27 01:12:16;;;;;;;8.60;4.35;;;384.30;2329.60;;;;;;5071742;28;20033;-60
2021/05/27 01:17:25;;;;;;;6.10;3.03;;;384.40;2329.60;;;;;;5071575;28;20087;-60
2021/05/27 01:19:52;;;;;;;5.03;3.25;;;384.40;2329.60;;;;;;5071369;28;20021;-60
2021/05/27 01:22:22;;;;;;;6.22;3.88;;;384.40;2329.60;;;;;;5071342;28;20104;-62
2021/05/27 01:24:49;;;;;;;5.57;3.47;;;384.30;2329.60;;;;;;5071146;28;20060;-62
2021/05/27 01:27:17;;;;;;;6.40;4.25;;;384.10;2329.60;;;;;;5071194;28;20044;-62
2021/05/27 01:29:42;;;;;;;11.35;4.10;;;384.20;2329.60;;;;;;5070935;28;20055;-62
2021/05/27 01:32:09;;;;;;;8.52;3.65;;;384.10;2329.60;;;;;;5070876;28;20056;-61
2021/05/27 01:34:35;;;;;;;5.25;3.35;;;384.10;2329.60;;;;;;5071078;28;20111;-62
2021/05/27 01:37:01;;;;;;;5.63;3.45;;;384.00;2329.60;;;;;;5070912;28;20028;-62
2021/05/27 01:39:27;;;;;;;6.53;3.45;;;384.00;2329.60;;;;;;5070921;28;20519;-62
2021/05/27 01:41:53;;;;;;;8.75;3.03;;;384.00;2329.60;;;;;;5070665;28;20044;-62
2021/05/27 01:44:18;;;;;;;5.28;3.22;;;384.00;2329.60;;;;;;5070821;28;20060;-62
2021/05/27 01:46:44;;;;;;;4.60;2.78;;;384.10;2329.60;;;;;;5070314;28;20067;-61
2021/05/27 01:49:10;;;;;;;8.07;3.65;;;384.20;2329.60;;;;;;5070553;28;20493;-62
2021/05/27 01:51:36;;;;;;;4.00;2.83;;;384.40;2329.60;;;;;;5070691;28;20052;-61
2021/05/27 01:54:02;;;;;;;14.35;3.60;;;384.50;2329.60;;;;;;5070618;28;20024;-61
2021/05/27 01:56:28;;;;;;;7.57;3.70;;;384.60;2329.60;;;;;;5070655;28;20409;-63
2021/05/27 01:59:04;;;;;;;5.28;3.08;;;384.70;2329.60;;;;;;5070521;28;20099;-63
2021/05/27 02:01:30;;;;;;;6.90;3.45;;;384.60;2329.60;;;;;;5069987;28;20391;-64
2021/05/27 02:03:56;;;;;;;6.18;3.70;;;384.60;2329.60;;;;;;5070612;28;20032;-62
2021/05/27 02:06:22;;;;;;;6.18;3.67;;;384.50;2329.60;;;;;;5070477;28;20024;-63
2021/05/27 02:09:08;;;;;;;9.45;4.40;;;384.40;2329.60;;;;;;5070432;28;20031;-63
2021/05/27 02:11:38;;;;;;;4.65;3.30;;;384.40;2329.60;;;;;;5070300;28;20044;-61
2021/05/27 02:14:05;;;;;;;6.45;3.60;;;384.40;2329.60;;;;;;5070100;28;20448;-61
2021/05/27 02:16:32;;;;;;;5.10;3.50;;;384.30;2329.60;;;;;;5070193;28;20379;-61
2021/05/27 02:18:57;;;;;;;6.43;2.90;;;384.30;2329.60;;;;;;5070371;28;20020;-61
2021/05/27 02:21:24;;;;;;;4.30;2.92;;;384.40;2329.60;;;;;;5070167;28;20043;-62
2021/05/27 02:23:58;;;;;;;6.32;3.15;;;384.30;2329.60;;;;;;5070284;28;20071;-61
2021/05/27 02:26:24;;;;;;;9.10;3.60;;;384.30;2329.60;;;;;;5069613;28;20032;-61
2021/05/27 02:28:50;;;;;;;5.05;3.30;;;384.00;2329.60;;;;;;5070162;28;20028;-61
2021/05/27 02:31:18;;;;;;;7.03;3.50;;;384.00;2329.60;;;;;;5070219;28;20032;-61
2021/05/27 02:33:44;;;;;;;6.45;3.42;;;384.00;2329.60;;;;;;5070220;28;20031;-61
2021/05/27 02:36:10;;;;;;;6.38;3.47;;;359.30;2329.60;;;;;;5069886;28;20021;-62
2021/05/27 02:38:36;;;;;;;7.00;4.43;;;359.30;2329.60;;;;;;5070190;28;20505;-60
2021/05/27 02:41:04;;;;;;;6.68;3.42;;;384.00;2329.60;;;;;;5069639;28;20057;-62
2021/05/27 02:43:31;;;;;;;7.07;4.03;;;384.10;2329.60;;;;;;5070029;28;20035;-61
2021/05/27 02:45:56;;;;;;;9.20;3.78;;;384.00;2329.60;;;;;;5069950;28;20021;-61
2021/05/27 02:48:23;;;;;;;7.85;3.75;;;359.30;2329.60;;;;;;5069655;28;20040;-62
2021/05/27 02:50:48;;;;;;;5.75;3.75;;;384.00;2329.60;;;;;;5070047;28;20024;-62
2021/05/27 02:53:14;;;;;;;6.60;3.70;;;384.00;2329.60;;;;;;5069800;28;20031;-62
2021/05/27 02:55:40;;;;;;;5.95;3.58;;;384.00;2329.60;;;;;;5069822;28;20139;-61
2021/05/27 02:58:06;;;;;;;8.65;3.60;;;384.00;2329.60;;;;;;5069938;28;20528;-61
2021/05/27 03:00:32;;;;;;;5.65;3.90;;;384.00;2329.60;;;;;;5069270;28;20032;-61
2021/05/27 03:02:58;;;;;;;6.88;3.72;;;384.10;2329.60;;;;;;5069815;28;20075;-61
2021/05/27 03:05:23;;;;;;;6.90;4.13;;;384.10;2329.60;;;;;;5069673;28;20028;-61
2021/05/27 03:07:49;;;;;;;7.65;4.20;;;384.10;2329.60;;;;;;5069886;28;20040;-62
2021/05/27 03:10:15;;;;;;;7.93;4.43;;;384.10;2329.60;;;;;;5069773;28;20051;-60
2021/05/27 03:12:40;;;;;;;8.52;3.45;;;384.20;2329.60;;;;;;5069634;28;20029;-62
2021/05/27 03:15:07;;;;;;;7.53;4.13;;;384.20;2329.60;;;;;;5069638;28;20048;-60
2021/05/27 03:17:33;;;;;;;6.63;3.45;;;384.30;2329.60;;;;;;5069758;28;20032;-61
2021/05/27 03:19:59;;;;;;;10.18;4.30;;;384.10;2329.60;;;;;;5069909;28;20086;-61
2021/05/27 03:22:26;;;;;;;6.60;3.45;;;384.30;2329.60;;;;;;5069803;28;20033;-62
2021/05/27 03:24:52;;;;;;;6.03;3.47;;;384.30;2329.60;;;;;;5069505;28;20017;-61
2021/05/27 03:27:17;;;;;;;9.32;3.80;;;384.30;2329.60;;;;;;5069672;28;20378;-61
2021/05/27 03:29:43;;;;;;;5.80;3.47;;;384.30;2329.60;;;;;;5069465;28;20032;-60
2021/05/27 03:32:09;;;;;;;5.60;3.47;;;384.30;2329.60;;;;;;5069429;28;20036;-60
2021/05/27 03:34:35;;;;;;;6.07;3.60;;;384.30;2329.60;;;;;;5069670;28;20466;-61
2021/05/27 03:37:01;;;;;;;6.72;3.58;;;384.30;2329.60;;;;;;5069260;28;20020;-62
2021/05/27 03:39:27;;;;;;;13.27;3.65;;;384.30;2329.60;;;;;;5071596;28;20024;-61
2021/05/27 03:41:53;;;;;;;7.97;3.50;;;384.20;2329.60;;;;;;5072771;28;20037;-61
2021/05/27 03:44:18;;;;;;;5.00;3.53;;;384.20;2329.60;;;;;;5073179;28;20030;-61
2021/05/27 03:46:44;;;;;;;4.95;3.15;;;359.20;2329.60;;;;;;5072853;28;20047;-62
2021/05/27 03:49:10;;;;;;;6.93;4.00;;;384.20;2329.60;;;;;;5072722;28;20033;-61
2021/05/27 03:51:35;;;;;;;6.70;3.50;;;384.30;2329.60;;;;;;5064102;28;20037;-61
2021/05/27 03:54:01;;;;;;;11.52;3.55;;;384.30;2329.60;;;;;;5053259;28;20028;-62
2021/05/27 03:56:27;;;;;;;10.27;3.83;;;384.30;2329.60;;;;;;5052854;28;20048;-61
2021/05/27 04:01:37;;;;;;;12.68;4.28;;;384.50;2329.60;;;;;;5052656;28;20093;-62
2021/05/27 04:09:32;;;;;;;9.40;5.03;;;384.30;2329.60;;;;;;5052540;28;20493;-62
2021/05/27 04:14:42;;;;;;;6.88;4.47;;;384.40;2329.60;;;;;;5052652;28;20048;-63
2021/05/27 04:17:08;;;;;;;8.32;4.32;;;384.70;2329.60;;;;;;5052521;28;20074;-62
2021/05/27 04:19:34;;;;;;;7.90;3.95;;;384.70;2329.60;;;;;;5052298;28;20035;-60
2021/05/27 04:22:00;;;;;;;6.75;4.05;;;409.60;2355.20;;;;;;5052289;28;20025;-61
2021/05/27 04:24:25;;;;;;;6.03;3.42;;;409.90;2355.20;;;;;;5052042;28;20048;-61
2021/05/27 04:26:51;;;;;;;5.90;3.42;;;409.90;2329.60;;;;;;5052246;28;20029;-61
2021/05/27 04:29:17;;;;;;;7.10;4.03;;;410.00;2355.20;;;;;;5052299;28;20531;-61
2021/05/27 04:31:43;;;;;;;6.65;3.38;;;410.10;2355.20;;;;;;5051972;28;20029;-62
2021/05/27 04:34:08;;;;;;;13.50;3.58;;;410.10;2355.20;;;;;;5052410;28;20037;-63
2021/05/27 04:36:34;;;;;;;7.18;5.00;;;435.30;2278.40;;;;;;5052103;28;20364;-62
2021/05/27 04:39:00;;;;;;;11.77;5.50;;;486.70;2073.60;;;;;;5052240;28;20033;-63
2021/05/27 04:41:25;;;;;;;6.88;5.45;;;563.40;1817.60;;;;;;5052079;28;20049;-62
2021/05/27 04:43:57;;;;;;;6.93;4.82;;;615.00;1536.00;;;;;;5052019;28;20055;-62
2021/05/27 04:46:25;;;;;;;6.85;4.13;;;666.00;1382.40;;;;;;5051716;28;20025;-63
2021/05/27 04:48:51;;;;;;;7.43;4.35;;;691.80;1254.40;;;;;;5051717;28;20036;-64
2021/05/27 04:51:16;;;;;;;6.50;3.97;;;716.90;1203.20;;;;;;5051752;28;20025;-64
2021/05/27 04:53:42;;;;;;;7.20;4.53;;;717.70;1152.00;;;;;;5051728;28;20055;-62
2021/05/27 04:56:08;;;;;;;6.68;6.07;;;743.00;1100.80;;;;;;5051736;28;20025;-64
2021/05/27 04:58:34;;;;;;;11.05;10.15;;;768.30;1049.60;;;;;;5051604;28;20033;-64
2021/05/27 05:01:00;;;;;;;8.55;7.88;;;768.40;1049.60;;;;;;5051452;28;20029;-62
2021/05/27 05:03:26;;;;;;;9.57;8.88;;;794.00;998.40;;;;;;5051778;28;20040;-62
2021/05/27 05:05:52;;;;;;;9.43;8.63;;;794.20;972.80;;;;;;5051252;28;20021;-63
2021/05/27 05:08:18;;;;;;;8.10;7.03;;;819.20;972.80;;;;;;5051410;28;20383;-63
2021/05/27 05:10:43;;;;;;;7.05;6.45;;;819.40;947.20;;;;;;5051461;28;20036;-63
2021/05/27 05:13:09;;;;;;;7.38;6.68;;;819.20;947.20;;;;;;5051656;28;20091;-63
2021/05/27 05:15:40;;;;;;;9.15;6.68;;;819.70;947.20;;;;;;5051597;28;20017;-62
2021/05/27 05:18:08;;;;;;;8.68;6.90;;;820.10;921.60;;;;;;5051446;28;20033;-63
2021/05/27 05:20:40;;;;;;;7.22;6.53;;;845.40;896.00;;;;;;5051142;28;20021;-63
2021/05/27 05:23:06;;;;;;;7.95;5.97;;;870.60;870.40;;;;;;5051278;28;20055;-63
2021/05/27 05:25:34;;;;;;;6.60;5.72;;;845.30;896.00;;;;;;5050947;28;20543;-64
2021/05/27 05:28:01;;;;;;;7.50;5.60;;;845.00;921.60;;;;;;5051280;28;20041;-64
2021/05/27 05:30:28;;;;;;;5.25;4.75;;;845.70;870.40;;;;;;5051128;28;20029;-63
2021/05/27 05:32:55;;;;;;;7.57;5.45;;;896.20;819.20;;;;;;5050851;28;20064;-63
2021/05/27 05:35:22;;;;;;;7.78;4.80;;;921.80;819.20;;;;;;5050951;28;20031;-63
2021/05/27 05:37:49;;;;;;;5.53;4.93;;;947.90;716.80;;;;;;5050786;28;20079;-63
2021/05/27 05:40:17;;;;;;;9.20;5.30;;;948.10;716.80;;;;;;5050768;28;20032;-63
2021/05/27 05:42:44;;;;;;;9.32;6.68;;;972.80;716.80;;;;;;5050660;28;20464;-62
2021/05/27 05:45:12;;;;;;;8.13;7.28;;;948.10;716.80;;;;;;5050980;28;20434;-63
2021/05/27 05:47:38;;;;;;;8.60;7.93;;;948.10;691.20;;;;;;5050588;28;20119;-63
2021/05/27 05:50:06;;;;;;;10.88;9.85;;;973.60;691.20;;;;;;5050456;28;20108;-64
2021/05/27 05:52:32;;;;;;;10.77;9.68;;;998.80;691.20;;;;;;5050572;28;20033;-62
2021/05/27 05:54:57;;;;;;;9.90;9.02;;;1024.10;640.00;;;;;;5050904;28;20028;-65
2021/05/27 05:57:23;;;;;;;10.82;9.93;;;999.20;665.60;;;;;;5050548;28;20033;-63
2021/05/27 05:59:49;;;;;;;9.52;8.75;;;1024.50;614.40;;;;;;5050905;28;20028;-65
2021/05/27 06:02:15;;;;;;;10.05;9.00;;;1049.60;614.40;;;;;;5049519;28;20029;-66
2021/05/27 06:04:40;;;;;;;9.57;8.77;;;1024.60;640.00;;;;;;5050513;28;20494;-64
2021/05/27 06:07:06;;;;;;;11.07;10.13;;;1049.60;640.00;;;;;;5050803;28;20041;-65
2021/05/27 06:09:32;;;;;;;9.90;9.10;;;1050.10;614.40;;;;;;5050422;28;20025;-65
2021/05/27 06:11:58;;;;;;;11.07;10.38;;;1050.00;614.40;;;;;;5050426;28;20024;-65
2021/05/27 06:14:23;;;;;;;11.63;10.73;;;1075.20;588.80;;;;;;5050169;28;20025;-65
2021/05/27 06:16:49;;;;;;;11.52;10.60;;;1101.20;563.20;;;;;;5032222;28;20130;-65
2021/05/27 06:19:15;;;;;;;11.00;10.30;;;1101.40;563.20;;;;;;5050266;28;20021;-65
2021/05/27 06:21:41;;;;;;;12.27;11.32;;;1101.60;537.60;;;;;;5050152;28;20415;-64
2021/05/27 06:24:08;;;;;;;13.95;12.80;;;1101.10;537.60;;;;;;5050363;28;20029;-64
2021/05/27 06:26:35;;;;;;;13.15;12.00;;;1076.10;512.00;;;;;;5050027;28;20071;-64
2021/05/27 06:29:01;;;;;;;11.93;11.00;;;1101.60;486.40;;;;;;5050219;28;20025;-67
2021/05/27 06:31:27;;;;;;;11.93;11.13;;;1101.40;486.40;;;;;;5050110;28;20083;-67
2021/05/27 06:33:52;;;;;;;13.23;12.23;;;1126.80;512.00;;;;;;5050026;28;20029;-64
2021/05/27 06:36:18;;;;;;;12.73;11.75;;;1126.80;486.40;;;;;;5050102;28;20027;-65
2021/05/27 06:38:44;;;;;;;12.45;11.55;;;1127.10;486.40;;;;;;5031838;28;20060;-64
2021/05/27 06:41:09;;;;;;;11.93;11.00;;;1177.70;435.20;;;;;;5049865;28;20051;-64
2021/05/27 06:43:35;;;;;;;12.43;11.27;;;1152.60;435.20;;;;;;5049952;28;20025;-64
2021/05/27 06:46:01;;;;;;;11.52;10.73;;;1203.30;435.20;;;;;;5049768;28;20074;-64
2021/05/27 06:48:27;;;;;;;13.15;12.00;;;1203.60;435.20;;;;;;5049916;28;20029;-65
2021/05/27 06:50:53;;;;;;;11.82;11.13;;;1152.20;435.20;;;;;;5049905;28;20028;-63
2021/05/27 06:53:19;;;;;;;10.60;9.88;;;1152.90;409.60;;;;;;5049789;28;20029;-65
2021/05/27 06:55:47;;;;;;;10.82;9.75;;;1178.20;409.60;;;;;;5049766;28;20379;-64
2021/05/27 06:58:13;;;;;;;11.48;10.38;;;1178.30;409.60;;;;;;5050037;28;20036;-64
2021/05/27 07:00:40;;;;;;;12.25;11.35;;;1203.90;435.20;;;;;;5049831;28;20032;-65
2021/05/27 07:03:07;;;;;;;11.20;10.35;;;1152.40;409.60;;;;;;5050015;28;20422;-65
2021/05/27 07:05:35;;;;;;;11.95;10.98;;;1177.70;409.60;;;;;;5049149;28;20027;-66
2021/05/27 07:08:03;;;;;;;10.57;9.68;;;1152.90;409.60;;;;;;5057419;28;20033;-64
2021/05/27 07:10:30;;;;;;;10.70;9.90;;;1152.20;409.60;;;;;;5058038;28;20016;-63
2021/05/27 07:12:59;;;;;;;11.07;9.15;;;1152.60;409.60;;;;;;5052283;28;20112;-64
2021/05/27 07:15:26;;;;;;;13.88;9.48;;;1126.90;435.20;;;;;;5063219;28;20025;-63
2021/05/27 07:17:53;;;;;;;11.82;9.60;;;1126.70;435.20;;;;;;5061382;28;20083;-64
2021/05/27 07:20:19;;;;;;;10.07;9.27;;;1126.50;460.80;;;;;;5062176;28;20024;-65
2021/05/27 07:22:45;;;;;;;9.13;8.23;;;1126.70;435.20;;;;;;5063117;28;20024;-63
2021/05/27 07:25:11;;;;;;;9.00;8.10;;;1127.00;435.20;;;;;;5061271;28;20397;-63
2021/05/27 07:27:38;;;;;;;8.88;8.27;;;1152.10;435.20;;;;;;5062146;28;20139;-64
2021/05/27 07:30:07;;;;;;;10.13;8.20;;;1126.70;435.20;;;;;;5062777;28;20036;-64
2021/05/27 07:32:33;;;;;;;7.85;7.15;;;1152.40;409.60;;;;;;5055625;28;20036;-63
2021/05/27 07:34:59;;;;;;;8.32;7.47;;;1126.40;409.60;;;;;;5053305;28;20108;-65
2021/05/27 07:37:25;;;;;;;9.15;7.45;;;1101.60;409.60;;;;;;5053239;28;20078;-65
2021/05/27 07:39:51;;;;;;;7.75;6.70;;;1101.10;435.20;;;;;;5053057;28;20388;-63
2021/05/27 07:42:17;;;;;;;7.90;7.20;;;1101.10;435.20;;;;;;5053090;28;20160;-64
2021/05/27 07:44:43;;;;;;;10.80;7.13;;;1101.30;435.20;;;;;;5053085;28;20049;-64
2021/05/27 07:47:09;;;;;;;6.78;6.18;;;1101.10;435.20;;;;;;5053024;28;20072;-64
2021/05/27 07:49:35;;;;;;;6.72;6.13;;;1101.20;435.20;;;;;;5052798;28;20055;-63
2021/05/27 07:52:02;;;;;;;10.43;6.93;;;1126.90;409.60;;;;;;5052790;28;20071;-67
2021/05/27 07:54:28;;;;;;;8.73;7.15;;;1127.10;409.60;;;;;;5035534;28;20031;-66
2021/05/27 07:56:54;;;;;;;7.18;6.57;;;1101.50;435.20;;;;;;5053186;28;20039;-66
2021/05/27 07:59:20;;;;;;;8.50;5.68;;;1075.90;435.20;;;;;;5053219;28;20029;-64
2021/05/27 08:01:46;;;;;;;5.93;5.20;;;1075.60;460.80;;;;;;5053029;28;20094;-65
2021/05/27 08:04:12;;;;;;;9.07;5.68;;;1049.90;486.40;;;;;;5052915;28;20422;-64
2021/05/27 08:06:38;;;;;;;5.95;5.35;;;1049.70;512.00;;;;;;5053004;28;20021;-63
2021/05/27 08:09:07;;;;;;;7.85;5.18;;;1024.50;486.40;;;;;;5052804;28;20025;-64
2021/05/27 08:11:36;;;;;;;5.70;4.68;;;1024.00;486.40;;;;;;5052858;28;20025;-63
2021/05/27 08:14:02;;;;;;;4.90;3.97;;;973.00;563.20;;;;;;5052542;28;20530;-64
2021/05/27 08:16:28;;;;;;;6.10;4.32;;;921.80;563.20;;;;;;5052774;28;20053;-63
2021/05/27 08:18:53;;;;;;;5.25;3.60;;;870.90;614.40;;;;;;5052253;28;20430;-63
2021/05/27 08:21:19;;;;;;;3.80;3.25;;;870.50;640.00;;;;;;5052700;28;20409;-63
2021/05/27 08:23:45;;;;;;;4.35;3.47;;;844.90;665.60;;;;;;5052395;28;20052;-64
2021/05/27 08:26:11;;;;;;;6.35;3.45;;;819.80;665.60;;;;;;5051950;28;20151;-63
2021/05/27 08:28:37;;;;;;;4.93;2.67;;;844.90;691.20;;;;;;5052682;28;20029;-63
2021/05/27 08:31:04;;;;;;;6.32;3.22;;;819.60;665.60;;;;;;5051903;28;20032;-62
2021/05/27 08:33:30;;;;;;;5.15;2.78;;;819.90;716.80;;;;;;5052460;28;20926;-62
2021/05/27 08:35:56;;;;;;;6.28;2.97;;;819.60;691.20;;;;;;5052277;28;20364;-62
2021/05/27 08:38:22;;;;;;;8.23;3.92;;;819.40;665.60;;;;;;5052052;28;20048;-62
2021/05/27 08:40:48;;;;;;;4.35;2.20;;;819.70;665.60;;;;;;5051929;28;20079;-62
2021/05/27 08:43:14;;;;;;;5.32;3.28;;;819.20;640.00;;;;;;5052047;28;20037;-62
2021/05/27 08:45:42;;;;;;;4.88;2.60;;;794.00;691.20;;;;;;5052308;28;20213;-63
2021/05/27 08:48:11;;;;;;;12.32;3.00;;;768.60;691.20;;;;;;5051878;28;20057;-63
2021/05/27 08:50:44;;;;;;;7.72;2.72;;;768.60;742.40;;;;;;5052031;28;20039;-63
2021/05/27 08:53:14;;;;;;;5.13;2.50;;;793.90;742.40;;;;;;5051589;28;20036;-62
2021/05/27 08:55:40;;;;;;;8.23;2.85;;;768.80;716.80;;;;;;5033561;28;20032;-62
2021/05/27 08:58:06;;;;;;;6.68;2.80;;;793.80;742.40;;;;;;5051726;28;20037;-63
2021/05/27 09:00:32;;;;;;;6.20;2.83;;;794.10;716.80;;;;;;5051584;28;20052;-61
2021/05/27 09:03:02;;;;;;;4.38;2.60;;;768.60;716.80;;;;;;5051637;28;20037;-63
2021/05/27 09:05:33;;;;;;;9.40;2.78;;;768.90;768.00;;;;;;5051750;28;20027;-62
2021/05/27 09:08:00;;;;;;;5.53;2.85;;;768.50;768.00;;;;;;5051727;28;20065;-62
2021/05/27 09:10:41;;;;;;;7.55;3.30;;;768.40;768.00;;;;;;5051529;28;20482;-63
2021/05/27 09:13:20;;;;;;;6.80;3.70;;;768.40;793.60;;;;;;5051519;28;20493;-63
2021/05/27 09:15:50;;;;;;;6.70;3.33;;;743.30;819.20;;;;;;5051757;28;20079;-63
2021/05/27 09:18:40;;;;;;;7.10;3.00;;;768.10;819.20;;;;;;5051456;28;20387;-63
2021/05/27 09:21:08;;;;;;;6.60;3.70;;;768.10;819.20;;;;;;5051565;28;20071;-63
2021/05/27 09:23:35;;;;;;;7.13;3.63;;;768.30;793.60;;;;;;5051419;28;20390;-63
2021/05/27 09:26:13;;;;;;;7.63;3.05;;;768.00;844.80;;;;;;5051419;28;20029;-62
2021/05/27 09:28:39;;;;;;;7.85;3.30;;;768.40;819.20;;;;;;5051240;28;20063;-62
2021/05/27 09:31:07;;;;;;;9.20;3.08;;;768.60;844.80;;;;;;5051083;28;20036;-63
2021/05/27 09:33:38;;;;;;;5.20;3.13;;;768.50;819.20;;;;;;5051127;28;20529;-61
2021/05/27 09:36:09;;;;;;;8.30;3.55;;;768.10;844.80;;;;;;5050139;28;20048;-63
2021/05/27 09:38:54;;;;;;;4.88;2.75;;;768.10;819.20;;;;;;5051161;28;20028;-66
2021/05/27 09:41:35;;;;;;;9.55;3.20;;;743.30;819.20;;;;;;5050864;28;20056;-64
2021/05/27 09:44:01;;;;;;;9.18;2.58;;;742.50;870.40;;;;;;5050899;28;20060;-62
2021/05/27 09:46:27;;;;;;;7.03;3.30;;;742.40;870.40;;;;;;5050864;28;20055;-63
2021/05/27 09:49:04;;;;;;;7.50;3.10;;;717.70;870.40;;;;;;5050610;28;20032;-63
2021/05/27 09:51:30;;;;;;;8.25;2.67;;;717.30;870.40;;;;;;5050460;28;20064;-64
2021/05/27 09:53:56;;;;;;;6.60;2.92;;;717.10;870.40;;;;;;5032292;28;20060;-64
2021/05/27 09:56:51;;;;;;;9.23;2.40;;;692.00;870.40;;;;;;5050524;28;20444;-63
2021/05/27 09:59:17;;;;;;;4.50;3.13;;;691.80;870.40;;;;;;4950858;29;20054;-63
2021/05/27 10:02:13;;;;;;;10.57;3.42;;;716.90;870.40;;;;;;4950527;29;20039;-63
2021/05/27 10:04:57;;;;;;;4.57;2.67;;;716.80;896.00;;;;;;4942883;29;20070;-61
2021/05/27 10:07:46;;;;;;;6.07;2.53;;;717.20;896.00;;;;;;4950299;29;20069;-62
2021/05/27 10:10:14;;;;;;;6.05;2.65;;;717.10;896.00;;;;;;4950400;29;20042;-63
2021/05/27 10:12:42;;;;;;;8.43;3.03;;;717.40;896.00;;;;;;4950520;29;20035;-63
2021/05/27 10:15:19;;;;;;;5.65;2.83;;;717.20;896.00;;;;;;4950228;29;20027;-62
2021/05/27 10:17:49;;;;;;;11.30;3.35;;;717.50;896.00;;;;;;4950245;29;20062;-63
2021/05/27 10:20:25;;;;;;;5.45;3.25;;;717.40;896.00;;;;;;4950459;29;20031;-65
2021/05/27 10:22:54;;;;;;;6.38;2.83;;;716.90;896.00;;;;;;4950110;29;20450;-62
2021/05/27 10:25:20;;;;;;;4.70;2.75;;;716.90;972.80;;;;;;4950394;29;20119;-63
2021/05/27 10:27:51;;;;;;;8.65;2.85;;;717.40;921.60;;;;;;4950352;29;20411;-62
2021/05/27 10:30:19;;;;;;;6.45;2.70;;;717.50;947.20;;;;;;4950268;29;20158;-63
2021/05/27 10:33:06;;;;;;;4.78;2.97;;;742.50;896.00;;;;;;4949742;29;20035;-63
2021/05/27 10:35:50;;;;;;;3.65;2.60;;;742.60;896.00;;;;;;4994537;28;20108;-65
2021/05/27 10:38:37;;;;;;;5.60;2.72;;;742.60;870.40;;;;;;5050267;28;20032;-65
2021/05/27 10:41:04;;;;;;;5.10;2.83;;;742.40;870.40;;;;;;5049596;28;20052;-64
2021/05/27 10:43:30;;;;;;;17.40;3.55;;;742.60;870.40;;;;;;5050319;28;20106;-65
2021/05/27 10:46:01;;;;;;;7.30;3.28;;;742.50;870.40;;;;;;5032519;28;20056;-65
2021/05/27 10:48:29;;;;;;;4.80;2.80;;;742.40;870.40;;;;;;5049770;28;20469;-65
2021/05/27 10:56:01;;;;;;;5.45;3.08;;;742.40;921.60;;;;;;5050080;28;20036;-64
2021/05/27 10:58:46;;;;;;;4.90;3.10;;;742.40;921.60;;;;;;5047136;28;20049;-64
2021/05/27 11:01:15;;;;;;;5.40;3.17;;;742.50;921.60;;;;;;5048486;28;20779;-62
2021/05/27 11:03:48;;;;;;;6.60;3.17;;;742.60;896.00;;;;;;5048324;28;20025;-65
2021/05/27 11:06:17;;;;;;;7.22;3.00;;;717.50;896.00;;;;;;5048116;28;20029;-65
2021/05/27 11:08:43;;;;;;;6.32;3.47;;;742.50;896.00;;;;;;5048346;28;20053;-64
2021/05/27 11:11:55;;;;;;;5.93;3.67;;;717.70;870.40;;;;;;5047829;28;20075;-64
2021/05/27 11:14:41;;;;;;;4.65;2.92;;;717.40;896.00;;;;;;5011129;28;20102;-64
2021/05/27 11:17:07;;;;;;;6.60;3.38;;;717.40;921.60;;;;;;5048069;28;20048;-64
2021/05/27 11:25:16;;;;;;;4.47;3.10;;;717.50;921.60;;;;;;5047919;28;20112;-64
2021/05/27 11:27:49;;;;;;;7.38;3.78;;;742.40;972.80;;;;;;5047938;28;20028;-64
2021/05/27 11:30:43;;;;;;;10.80;3.72;;;717.60;921.60;;;;;;5047797;28;20029;-64
2021/05/27 11:33:16;;;;;;;6.50;3.30;;;717.40;896.00;;;;;;5048092;28;20033;-63
2021/05/27 11:35:43;;;;;;;4.93;2.80;;;717.50;896.00;;;;;;5047579;28;20124;-64
2021/05/27 11:38:12;;;;;;;8.52;3.80;;;717.30;896.00;;;;;;5047845;28;20041;-62
2021/05/27 11:40:46;;;;;;;7.35;3.55;;;717.40;947.20;;;;;;5029745;28;20076;-63
2021/05/27 11:43:14;;;;;;;5.65;3.28;;;717.10;921.60;;;;;;5047656;28;20119;-64
2021/05/27 11:45:45;;;;;;;9.82;3.42;;;691.90;896.00;;;;;;5047948;28;20021;-64
2021/05/27 11:48:28;;;;;;;3.63;2.75;;;692.10;947.20;;;;;;5047699;28;20100;-64
2021/05/27 11:51:12;;;;;;;5.97;3.17;;;691.90;921.60;;;;;;5047508;28;20025;-63
2021/05/27 11:53:58;;;;;;;5.93;3.10;;;691.70;947.20;;;;;;5049440;28;20025;-63
2021/05/27 11:56:27;;;;;;;7.45;3.45;;;691.80;947.20;;;;;;5049235;28;20112;-64
2021/05/27 11:58:53;;;;;;;4.93;3.17;;;691.50;947.20;;;;;;5049239;28;20179;-62
2021/05/27 12:01:27;;;;;;;5.30;3.40;;;666.50;972.80;;;;;;5052825;28;20476;-64
2021/05/27 12:04:00;;;;;;;4.35;2.92;;;666.20;998.40;;;;;;5052549;28;20040;-64
2021/05/27 12:06:26;;;;;;;5.95;3.42;;;666.30;972.80;;;;;;5052969;28;20060;-63
2021/05/27 12:08:53;;;;;;;6.00;3.70;;;691.30;972.80;;;;;;5052555;28;20502;-63
2021/05/27 12:11:32;;;;;;;5.60;3.17;;;691.30;998.40;;;;;;5053014;28;20112;-63
2021/05/27 12:14:01;;;;;;;7.53;3.50;;;666.30;972.80;;;;;;5052745;28;20028;-64
2021/05/27 12:16:35;;;;;;;6.82;3.58;;;666.40;1049.60;;;;;;5052818;28;20029;-63
2021/05/27 12:19:03;;;;;;;4.32;2.80;;;666.50;1024.00;;;;;;5052588;28;20040;-64
2021/05/27 12:21:29;;;;;;;4.20;3.13;;;691.20;1024.00;;;;;;5053190;28;20370;-64
2021/05/27 12:23:55;;;;;;;5.70;3.67;;;666.40;998.40;;;;;;5052491;28;20485;-63
2021/05/27 12:26:21;;;;;;;14.57;4.72;;;666.10;998.40;;;;;;5052524;28;20025;-64
2021/05/27 12:28:47;;;;;;;6.38;3.42;;;666.30;1024.00;;;;;;5052751;28;20031;-64
2021/05/27 12:31:13;;;;;;;7.07;3.63;;;666.20;1024.00;;;;;;5052363;28;20036;-63
2021/05/27 12:33:40;;;;;;;4.22;3.67;;;665.90;1024.00;;;;;;5052387;28;20122;-65
2021/05/27 12:36:07;;;;;;;8.05;4.55;;;665.70;1024.00;;;;;;5052413;28;20410;-63
2021/05/27 12:38:34;;;;;;;7.78;4.25;;;666.00;1049.60;;;;;;5052429;28;20033;-63
2021/05/27 12:41:05;;;;;;;7.20;4.03;;;666.30;1126.40;;;;;;5052158;28;20025;-62
2021/05/27 12:43:36;;;;;;;5.43;3.63;;;666.20;1075.20;;;;;;5051997;28;20060;-65
2021/05/27 12:46:04;;;;;;;12.77;4.63;;;666.40;1075.20;;;;;;5051969;28;20025;-63
2021/05/27 12:48:45;;;;;;;8.00;3.90;;;691.20;1100.80;;;;;;5051725;28;20025;-62